createdAt,value
2022-11-16T00:01:47.302Z,35.17
2022-11-16T03:13:44.567Z,12.15
2022-11-16T03:16:27.282Z,13.75
2022-11-16T03:18:56.888Z,9.50
2022-11-16T03:21:56.582Z,9.15
2022-11-16T03:27:26.937Z,8.18
2022-11-16T03:30:06.555Z,8.55
2022-11-16T03:32:50.777Z,8.60
2022-11-16T03:35:23.268Z,10.32
2022-11-16T03:37:53.963Z,10.85
2022-11-16T03:40:24.435Z,12.82
2022-11-16T03:42:53.207Z,12.50
2022-11-16T03:45:21.327Z,17.35
2022-11-16T03:47:50.806Z,12.90
2022-11-16T03:50:18.272Z,13.95
2022-11-16T03:52:45.266Z,10.55
2022-11-16T03:55:13.923Z,11.50
2022-11-16T03:57:42.803Z,13.18
2022-11-16T04:00:10.867Z,12.30
2022-11-16T04:02:40.639Z,14.05
2022-11-16T04:05:28.897Z,11.82
2022-11-16T04:08:14.401Z,11.15
2022-11-16T04:10:59.867Z,9.40
2022-11-16T04:13:50.661Z,9.15
2022-11-16T04:16:38.253Z,9.05
2022-11-16T04:19:28.116Z,11.00
2022-11-16T04:22:23.442Z,12.07
2022-11-16T04:24:54.986Z,12.88
2022-11-16T04:27:47.135Z,13.47
2022-11-16T04:30:14.797Z,30.70
2022-11-16T04:33:01.559Z,18.52
2022-11-16T04:35:47.208Z,25.42
2022-11-16T04:38:14.608Z,64.40
2022-11-16T04:40:41.615Z,29.75
2022-11-16T04:43:11.589Z,12.85
2022-11-16T04:46:17.460Z,11.70
2022-11-16T04:48:44.615Z,11.63
2022-11-16T04:51:11.755Z,12.23
2022-11-16T04:53:39.350Z,10.98
2022-11-16T04:56:19.256Z,12.48
2022-11-16T04:58:47.121Z,10.73
2022-11-16T05:01:14.822Z,9.77
2022-11-16T05:03:42.583Z,10.43
2022-11-16T05:06:09.591Z,9.70
2022-11-16T05:08:36.879Z,8.40
2022-11-16T05:11:05.422Z,8.70
2022-11-16T05:13:32.989Z,7.45
2022-11-16T05:16:01.476Z,9.77
2022-11-16T05:18:28.531Z,9.68
2022-11-16T05:21:02.070Z,6.95
2022-11-16T05:23:52.838Z,5.55
2022-11-16T05:26:22.387Z,5.68
2022-11-16T05:28:51.081Z,6.50
2022-11-16T05:31:18.284Z,4.70
2022-11-16T05:33:45.307Z,5.82
2022-11-16T05:36:14.375Z,7.03
2022-11-16T05:38:41.342Z,10.18
2022-11-16T05:41:08.318Z,10.02
2022-11-16T05:43:35.347Z,9.10
2022-11-16T05:46:14.449Z,11.40
2022-11-16T05:48:41.909Z,10.70
2022-11-16T05:51:08.800Z,12.65
2022-11-16T05:53:35.736Z,11.88
2022-11-16T05:56:04.358Z,11.85
2022-11-16T07:24:51.073Z,6.88
2022-11-16T07:29:50.079Z,5.47
2022-11-16T07:32:35.765Z,9.80
2022-11-16T07:35:18.179Z,7.88
2022-11-16T07:37:45.137Z,15.52
2022-11-16T07:40:14.753Z,18.77
2022-11-16T07:42:44.482Z,9.52
2022-11-16T07:45:25.564Z,11.23
2022-11-16T07:48:00.731Z,8.25
2022-11-16T07:50:46.049Z,8.43
2022-11-16T07:53:13.138Z,6.35
2022-11-16T07:55:40.284Z,10.50
2022-11-16T07:58:08.033Z,7.90
2022-11-16T08:00:35.677Z,12.43
2022-11-16T08:03:11.939Z,9.07
2022-11-16T08:05:39.314Z,8.75
2022-11-16T08:08:06.945Z,6.88
2022-11-16T08:10:36.723Z,14.75
2022-11-16T08:13:04.657Z,10.38
2022-11-16T08:47:38.982Z,6.20
2022-11-16T08:50:08.460Z,3.90
2022-11-16T08:52:35.456Z,6.85
2022-11-16T08:55:04.817Z,5.78
2022-11-16T08:57:32.934Z,9.55
2022-11-16T09:00:04.816Z,11.13
2022-11-16T09:02:31.720Z,9.70
2022-11-16T09:04:58.635Z,8.20
2022-11-16T09:07:25.697Z,6.60
2022-11-16T09:09:52.648Z,5.97
2022-11-16T09:12:19.986Z,8.77
2022-11-16T09:14:47.002Z,5.45
2022-11-16T09:17:16.578Z,4.53
2022-11-16T09:19:47.190Z,4.55
2022-11-16T09:22:14.087Z,4.50
2022-11-16T09:24:41.013Z,3.63
2022-11-16T09:27:08.075Z,6.53
2022-11-16T09:29:34.997Z,8.32
2022-11-16T09:32:03.941Z,6.05
2022-11-16T09:34:30.891Z,12.07
2022-11-16T09:36:57.889Z,7.30
2022-11-16T09:39:31.035Z,6.65
2022-11-16T09:42:10.524Z,8.63
2022-11-16T09:44:56.547Z,8.15
2022-11-16T09:47:57.530Z,5.65
2022-11-16T09:50:44.280Z,6.88
2022-11-16T09:53:37.548Z,6.28
2022-11-16T09:56:22.282Z,7.38
2022-11-16T09:59:15.052Z,6.57
2022-11-16T10:01:49.039Z,5.93
2022-11-16T10:04:37.017Z,4.57
2022-11-16T10:07:12.140Z,4.70
2022-11-16T10:09:39.189Z,6.28
2022-11-16T10:12:21.743Z,5.63
2022-11-16T10:15:04.852Z,5.95
2022-11-16T10:18:08.715Z,4.80
2022-11-16T10:21:00.234Z,5.30
2022-11-16T10:23:57.739Z,5.63
2022-11-16T10:26:43.401Z,5.40
2022-11-16T10:29:38.439Z,4.68
2022-11-16T10:32:31.231Z,6.45
2022-11-16T10:35:15.850Z,5.28
2022-11-16T10:37:49.486Z,6.28
2022-11-16T10:40:29.139Z,3.47
2022-11-16T10:43:13.707Z,4.55
2022-11-16T10:46:00.030Z,4.32
2022-11-16T10:49:02.084Z,5.13
2022-11-16T10:51:28.991Z,6.07
2022-11-16T10:53:57.112Z,3.50
2022-11-16T10:56:40.675Z,5.20
2022-11-16T10:59:13.565Z,7.97
2022-11-16T11:01:50.349Z,3.60
2022-11-16T11:04:27.385Z,4.85
2022-11-16T11:06:59.081Z,5.45
2022-11-16T11:09:36.539Z,4.90
2022-11-16T11:15:11.638Z,7.10
2022-11-16T11:17:41.454Z,8.88
2022-11-16T11:20:24.407Z,9.75
2022-11-16T11:23:04.448Z,9.75
2022-11-16T11:25:33.035Z,11.07
2022-11-16T11:28:16.628Z,8.85
2022-11-16T11:30:54.851Z,11.43
2022-11-16T11:33:23.771Z,13.80
2022-11-16T11:36:03.114Z,15.02
2022-11-16T11:38:30.692Z,9.88
2022-11-16T11:41:00.407Z,8.88
2022-11-16T11:43:29.411Z,9.27
2022-11-16T11:46:20.030Z,8.48
2022-11-16T11:49:04.839Z,9.13
2022-11-16T11:51:34.117Z,11.70
2022-11-16T11:54:03.720Z,13.98
2022-11-16T11:56:34.270Z,10.82
2022-11-16T11:59:04.403Z,9.88
2022-11-16T12:01:55.977Z,10.85
2022-11-16T12:04:58.390Z,8.85
2022-11-16T12:07:46.294Z,10.77
2022-11-16T12:10:34.866Z,7.85
2022-11-16T12:13:29.813Z,9.57
2022-11-16T12:16:37.573Z,6.40
2022-11-16T12:19:30.620Z,9.10
2022-11-16T12:22:26.178Z,7.57
2022-11-16T12:25:25.052Z,8.43
2022-11-16T12:28:13.586Z,9.20
2022-11-16T12:31:01.427Z,8.55
2022-11-16T12:33:43.152Z,7.80
2022-11-16T12:36:31.492Z,9.48
2022-11-16T12:39:24.808Z,10.07
2022-11-16T12:42:21.766Z,8.73
2022-11-16T12:45:26.410Z,8.82
2022-11-16T12:48:12.303Z,9.88
2022-11-16T12:51:00.035Z,10.80
2022-11-16T12:53:55.591Z,11.38
2022-11-16T12:56:34.655Z,14.05
2022-11-16T12:59:16.922Z,12.65
2022-11-16T13:02:21.254Z,15.30
2022-11-16T13:04:53.072Z,18.25
2022-11-16T13:07:23.131Z,16.38
2022-11-16T13:10:01.001Z,14.75
2022-11-16T13:12:29.667Z,13.95
2022-11-16T13:14:59.385Z,16.83
2022-11-16T13:17:31.044Z,13.05
2022-11-16T13:20:22.584Z,12.52
2022-11-16T13:23:22.725Z,12.93
2022-11-16T13:26:11.686Z,13.82
2022-11-16T13:29:07.895Z,12.05
2022-11-16T13:31:41.595Z,9.48
2022-11-16T13:36:58.997Z,10.13
2022-11-16T13:40:01.501Z,12.75
2022-11-16T13:42:30.246Z,11.95
2022-11-16T13:45:17.693Z,10.55
2022-11-16T13:47:56.746Z,9.85
2022-11-16T13:50:38.056Z,10.52
2022-11-16T13:58:29.666Z,8.70
2022-11-16T14:06:13.070Z,11.90
2022-11-16T14:08:39.968Z,17.50
2022-11-16T14:11:38.791Z,15.80
2022-11-16T14:14:33.002Z,17.80
2022-11-16T15:18:34.932Z,32.08
2022-11-16T15:21:01.997Z,29.75
2022-11-16T15:28:29.572Z,27.52
2022-11-16T15:31:04.372Z,27.48
2022-11-16T15:33:36.219Z,28.23
2022-11-16T15:36:37.965Z,26.52
2022-11-16T15:39:06.825Z,30.05
2022-11-16T15:41:34.428Z,28.50
2022-11-16T15:44:17.793Z,33.55
2022-11-16T15:46:48.982Z,32.28
2022-11-16T15:49:38.267Z,33.20
2022-11-16T15:52:05.695Z,33.22
2022-11-16T15:54:54.859Z,30.20
2022-11-16T15:57:23.894Z,33.28
2022-11-16T15:59:55.830Z,39.65
2022-11-16T16:02:27.591Z,32.08
2022-11-16T16:04:54.611Z,33.05
2022-11-16T16:07:39.460Z,32.97
2022-11-16T16:10:19.965Z,26.33
2022-11-16T16:12:54.391Z,29.92
2022-11-16T16:15:30.066Z,40.55
2022-11-16T16:17:58.895Z,32.15
2022-11-16T16:20:28.906Z,31.45
2022-11-16T16:23:11.474Z,30.35
2022-11-16T16:25:39.059Z,30.95
2022-11-16T16:28:06.193Z,29.42
2022-11-16T16:30:34.787Z,32.75
2022-11-16T16:33:02.392Z,37.75
2022-11-16T16:35:29.504Z,34.00
2022-11-16T16:38:01.483Z,32.70
2022-11-16T16:40:29.347Z,32.65
2022-11-16T16:42:57.889Z,32.08
2022-11-16T16:45:38.726Z,34.92
2022-11-16T16:48:06.914Z,33.47
2022-11-16T16:50:33.866Z,33.75
2022-11-16T16:53:00.925Z,36.08
2022-11-16T16:55:29.734Z,45.95
2022-11-16T16:57:59.501Z,146.75
2022-11-16T17:00:27.184Z,57.60
2022-11-16T17:02:54.349Z,58.85
2022-11-16T17:05:21.321Z,42.58
2022-11-16T17:07:48.344Z,39.05
2022-11-16T17:10:15.995Z,36.53
2022-11-16T17:12:44.319Z,42.53
2022-11-16T17:15:16.460Z,41.42
2022-11-16T17:17:46.210Z,43.28
2022-11-16T17:20:13.414Z,42.80
2022-11-16T17:22:41.947Z,42.40
2022-11-16T17:25:09.915Z,47.25
2022-11-16T17:27:37.340Z,43.03
2022-11-16T17:30:04.794Z,41.38
2022-11-16T17:32:32.354Z,42.88
2022-11-16T17:34:59.297Z,47.53
2022-11-16T17:37:26.286Z,45.35
2022-11-16T17:39:53.303Z,48.83
2022-11-16T17:42:20.302Z,48.28
2022-11-16T17:44:47.242Z,48.33
2022-11-16T17:47:14.208Z,50.25
2022-11-16T17:49:41.124Z,51.60
2022-11-16T17:52:08.035Z,51.08
2022-11-16T17:54:34.982Z,50.72
2022-11-16T17:57:02.016Z,49.92
2022-11-16T17:59:29.964Z,49.53
2022-11-16T18:01:58.058Z,49.53
2022-11-16T18:04:25.188Z,52.30
2022-11-16T18:06:52.370Z,50.40
2022-11-16T18:09:19.393Z,50.13
2022-11-16T18:11:46.440Z,50.58
2022-11-16T18:14:13.393Z,52.05
2022-11-16T18:16:44.389Z,54.40
2022-11-16T18:19:16.940Z,59.80
2022-11-16T18:24:13.908Z,53.72
2022-11-16T18:26:41.764Z,54.47
2022-11-16T18:29:12.701Z,53.28
2022-11-16T18:31:39.834Z,55.95
2022-11-16T18:34:06.792Z,57.15
2022-11-16T18:36:33.838Z,55.72
2022-11-16T18:39:00.865Z,55.08
2022-11-16T18:41:29.958Z,65.00
2022-11-16T18:43:59.543Z,52.88
2022-11-16T18:46:29.483Z,54.90
2022-11-16T18:48:57.079Z,56.20
2022-11-16T18:51:26.139Z,55.42
2022-11-16T18:53:53.789Z,57.97
2022-11-16T18:56:21.036Z,56.38
2022-11-16T18:58:50.757Z,58.90
2022-11-16T19:01:19.790Z,53.88
2022-11-16T19:03:46.895Z,51.83
2022-11-16T19:06:17.141Z,58.45
2022-11-16T19:08:46.884Z,52.55
2022-11-16T19:11:17.359Z,57.88
2022-11-16T19:13:45.090Z,50.47
2022-11-16T19:16:13.647Z,57.35
2022-11-16T19:18:41.057Z,62.05
2022-11-16T19:21:16.083Z,58.20
2022-11-16T19:23:46.001Z,58.38
2022-11-16T19:26:14.915Z,75.00
2022-11-16T19:28:43.987Z,55.05
2022-11-16T19:31:16.307Z,49.70
2022-11-16T19:33:44.523Z,53.33
2022-11-16T19:36:16.925Z,53.75
2022-11-16T19:38:45.188Z,52.22
2022-11-16T19:41:13.526Z,55.75
2022-11-16T19:43:41.044Z,55.47
2022-11-16T19:46:21.289Z,61.60
2022-11-16T19:48:49.479Z,59.70
2022-11-16T19:51:19.588Z,64.32
2022-11-16T19:53:46.967Z,62.45
2022-11-16T19:56:16.511Z,55.40
2022-11-16T19:58:44.196Z,64.25
2022-11-16T20:01:29.146Z,54.08
2022-11-16T20:03:58.728Z,54.20
2022-11-16T20:06:29.067Z,53.78
2022-11-16T20:09:00.563Z,55.47
2022-11-16T20:11:29.062Z,56.03
2022-11-16T20:13:57.541Z,55.30
2022-11-16T20:16:27.185Z,46.05
2022-11-16T20:18:54.731Z,38.55
2022-11-16T20:21:23.006Z,39.22
2022-11-16T20:23:53.872Z,25.40
2022-11-16T20:26:21.870Z,21.20
2022-11-16T20:28:53.288Z,27.13
2022-11-16T20:31:31.547Z,19.85
2022-11-16T20:34:00.466Z,26.33
2022-11-16T20:36:29.498Z,18.40
2022-11-16T20:38:57.610Z,20.75
2022-11-16T20:41:30.023Z,19.92
2022-11-16T20:44:02.722Z,18.58
2022-11-16T20:46:32.150Z,16.95
2022-11-16T20:49:01.624Z,27.75
2022-11-16T20:51:30.457Z,16.58
2022-11-16T20:53:57.796Z,19.30
2022-11-16T20:56:24.739Z,16.77
2022-11-16T20:58:51.741Z,18.80
2022-11-16T21:01:28.498Z,22.70
2022-11-16T21:03:56.671Z,20.58
2022-11-16T21:06:23.885Z,19.92
2022-11-16T21:08:50.935Z,21.15
2022-11-16T21:11:21.021Z,17.73
2022-11-16T21:14:06.897Z,16.52
2022-11-16T21:16:34.747Z,24.27
2022-11-16T21:19:02.093Z,17.58
2022-11-16T21:21:29.438Z,27.23
2022-11-16T21:23:56.469Z,20.02
2022-11-16T21:26:25.916Z,21.40
2022-11-16T21:28:53.165Z,21.55
2022-11-16T21:31:25.496Z,20.55
2022-11-16T21:33:53.589Z,24.73
2022-11-16T21:36:23.067Z,25.50
2022-11-16T21:38:50.637Z,20.70
2022-11-16T21:41:19.547Z,26.27
2022-11-16T21:43:46.949Z,26.38
2022-11-16T21:46:22.318Z,23.90
2022-11-16T21:48:51.213Z,25.23
2022-11-16T21:51:21.029Z,20.42
2022-11-16T21:53:48.330Z,21.05
2022-11-16T21:56:20.654Z,17.83
2022-11-16T21:58:50.012Z,22.63
2022-11-16T22:01:17.108Z,17.75
2022-11-16T22:03:44.915Z,25.05
2022-11-16T22:06:34.752Z,21.58
2022-11-16T22:09:01.731Z,21.67
2022-11-16T22:11:28.772Z,25.80
2022-11-16T22:13:55.688Z,22.35
2022-11-16T22:16:23.617Z,34.42
2022-11-16T22:18:50.946Z,22.17
2022-11-16T22:21:18.072Z,22.83
2022-11-16T22:23:45.282Z,19.30
2022-11-16T22:26:13.676Z,24.80
2022-11-16T22:28:40.908Z,29.60
2022-11-16T22:31:15.096Z,33.78
2022-11-16T22:33:42.418Z,22.10
2022-11-16T22:36:10.732Z,22.35
2022-11-16T22:38:38.279Z,19.73
2022-11-16T22:41:05.409Z,24.45
2022-11-16T22:43:33.145Z,18.85
2022-11-16T22:46:02.225Z,18.55
2022-11-16T22:48:31.387Z,16.88
2022-11-16T22:51:03.361Z,27.45
2022-11-16T22:53:30.310Z,18.05
2022-11-16T22:56:06.803Z,27.13
2022-11-16T22:58:35.579Z,18.80
2022-11-16T23:01:02.889Z,25.55
2022-11-16T23:03:30.146Z,12.02
2022-11-16T23:05:57.185Z,12.05
2022-11-16T23:08:24.891Z,17.17
2022-11-16T23:11:23.858Z,11.15
2022-11-16T23:14:11.539Z,15.48
2022-11-16T23:16:39.748Z,13.23
2022-11-16T23:19:26.982Z,16.58
2022-11-16T23:22:13.130Z,9.27
2022-11-16T23:24:58.671Z,20.23
2022-11-16T23:27:33.126Z,19.38
2022-11-16T23:30:10.923Z,11.55
2022-11-16T23:32:39.575Z,17.25
2022-11-16T23:35:07.023Z,12.27
2022-11-16T23:37:34.019Z,17.27
2022-11-16T23:40:01.010Z,10.32
2022-11-16T23:42:46.511Z,7.63
2022-11-16T23:45:13.510Z,9.23
2022-11-16T23:47:40.459Z,5.85
2022-11-16T23:50:07.656Z,9.27
2022-11-16T23:52:34.554Z,9.32
2022-11-16T23:55:01.481Z,8.98
2022-11-16T23:57:28.413Z,9.52
2022-11-16T23:59:55.292Z,9.85
